Airfield :
LOGIN :

Register | Disclaimer

   EN    FR    IT 

 










Legend :    VFR   Marginal VFR   IFR   Intensive IFR   Very Intensive IFR
Visi :
Ceiling :
>= 8 km
>= 3000ft
5 to 8 km
1000 to 3000 ft
1500m to 5 km
500 to 1000 ft
800 to 1500m
200 to 500 ft
< 800m
< 200 ft
Symbols :   Thunderstorms  Fog  Heavy snow  Heavy precipitations  Wind > 20 kt
SIGMETs :     Misc.  Thunderstorms  Icing  Turbulence  Mountain Waves  Volcanic Ashes






- Airport Elevation : 1090 ft
- IATA code : CFE


LFLC - Clermont-Ferrand Auvergne

CURRENT METAR :
  • 271730Z AUTO 32012KT 290V350 CAVOK 10/03 Q1010 TEMPO 33015G35KT

EXPIRED METARs :
  • 271700Z AUTO 32012KT 280V350 CAVOK 11/03 Q1009 TEMPO 33015G35KT
  • 271630Z AUTO 30015G29KT 240V360 9999 SCT034/// SCT043/// BKN052/// ///TCU 11/05 Q1007 BECMG SCT030
  • 271600Z AUTO 29022G38KT 9999 -RA FEW016/// SCT041/// BKN050/// ///TCU 11/06 Q1006 BECMG SCT030
  • 271530Z AUTO 28021G33KT 9999 FEW042 13/06 Q1005 NOSIG
  • 271500Z AUTO 28022G44KT 240V310 9999 FEW009 SCT045 BKN056 13/07 Q1004 NOSIG

TAF TAF LFLC
Valid from the 27 at 15:00 until the 28 at 15:00 UTC


271400Z 2715/2815 27015G30KT 9999 SCT030
PROB40
TEMPO 2715/2716 27020G45KT
BECMG 2716/2718 33010KT
TEMPO 2716/2719 33015G35KT
BECMG 2723/2801 18004KT
ATIS : +33 4 73 62 74 38



MET'MAP, your aeronautical weather chart ! - Copyright ORBIFLY December 2007 - Disclaimer

ORBIFLY MET'MAP TEAM :

Programming & Development : Alexandra Zaïnal
Concept & original design : Baudouin d'Aumeries
Assistance for programming : Marc-Olivier Méhu
Technical & hardware support : Manuel Goepfert

Contact : metmap@orbifly.com




SOURCES & CREDITS :

   NOAA